Time;durP1;ratioP1;P1;durP2;ratioP2;P2;SDS_P1;SDS_P2;PMS_P1;PMS_P2;Temp;Humidity;BMP_temperature;BMP_pressure;BME280_temperature;BME280_humidity;BME280_pressure;Samples;Min_cycle;Max_cycle;Signal;HPM_P1;HPM_P2
2023/04/19 00:02:17;;;;;;;0.60;0.60;;;22.30;46.80;;;;;;5012528;28;20132;-64
2023/04/19 00:04:46;;;;;;;0.93;0.93;;;22.30;46.80;;;;;;5012631;28;20054;-64
2023/04/19 00:07:13;;;;;;;0.65;0.65;;;22.30;46.80;;;;;;5012620;28;20434;-64
2023/04/19 00:09:40;;;;;;;0.80;0.60;;;22.30;46.80;;;;;;5012098;28;20081;-65
2023/04/19 00:12:08;;;;;;;0.52;0.52;;;22.30;46.80;;;;;;5012943;28;20046;-64
2023/04/19 00:14:35;;;;;;;0.40;0.40;;;22.30;46.80;;;;;;5013350;28;20084;-65
2023/04/19 00:17:02;;;;;;;0.70;0.70;;;22.30;46.80;;;;;;5011234;28;20089;-64
2023/04/19 00:19:29;;;;;;;0.82;0.60;;;22.30;46.80;;;;;;5012166;28;20053;-64
2023/04/19 00:21:57;;;;;;;0.75;0.73;;;22.30;46.80;;;;;;5011282;28;20132;-64
2023/04/19 00:24:24;;;;;;;0.60;0.60;;;22.30;46.80;;;;;;4993085;28;20101;-64
2023/04/19 00:26:51;;;;;;;0.50;0.50;;;22.30;46.80;;;;;;4993462;28;20089;-65
2023/04/19 00:29:18;;;;;;;0.68;0.50;;;22.30;46.80;;;;;;4995686;28;20061;-64
2023/04/19 00:31:46;;;;;;;0.60;0.60;;;22.30;46.80;;;;;;4996177;28;20506;-65
2023/04/19 00:34:13;;;;;;;1.10;0.52;;;22.30;46.80;;;;;;5010868;28;20085;-64
2023/04/19 00:36:40;;;;;;;0.73;0.73;;;22.30;46.80;;;;;;4997801;28;20054;-65
2023/04/19 00:39:08;;;;;;;0.45;0.45;;;22.20;46.70;;;;;;5012298;28;20050;-64
2023/04/19 00:41:35;;;;;;;0.80;0.80;;;22.20;46.70;;;;;;5016545;28;20082;-64
2023/04/19 00:44:02;;;;;;;0.47;0.47;;;22.20;46.70;;;;;;5016854;28;20085;-65
2023/04/19 00:46:29;;;;;;;0.50;0.50;;;22.20;46.70;;;;;;5016821;28;20570;-64
2023/04/19 00:48:56;;;;;;;0.80;0.80;;;22.20;46.70;;;;;;5016668;28;20048;-64
2023/04/19 00:51:25;;;;;;;0.60;0.60;;;22.20;46.70;;;;;;5016427;28;20142;-64
2023/04/19 00:53:53;;;;;;;0.68;0.68;;;22.20;46.70;;;;;;5015883;28;20104;-64
2023/04/19 00:56:22;;;;;;;0.90;0.60;;;22.20;46.70;;;;;;5016585;28;20138;-64
2023/04/19 00:58:50;;;;;;;0.63;0.63;;;22.20;46.70;;;;;;5016327;28;20046;-65
2023/04/19 01:01:18;;;;;;;0.40;0.40;;;22.20;46.70;;;;;;5015871;28;20136;-64
2023/04/19 01:03:46;;;;;;;0.68;0.68;;;22.20;46.70;;;;;;5016795;28;20054;-65
2023/04/19 01:06:15;;;;;;;1.85;0.65;;;22.20;46.70;;;;;;5016144;28;20508;-65
2023/04/19 01:08:42;;;;;;;0.30;0.30;;;22.20;46.70;;;;;;5015317;28;20077;-64
2023/04/19 01:11:09;;;;;;;0.75;0.75;;;22.20;46.70;;;;;;5016007;28;20050;-64
2023/04/19 01:13:37;;;;;;;0.60;0.60;;;22.20;46.70;;;;;;5016294;28;20045;-68
2023/04/19 01:16:05;;;;;;;0.47;0.47;;;22.20;46.70;;;;;;5015527;28;20046;-65
2023/04/19 01:18:36;;;;;;;0.50;0.50;;;22.20;46.70;;;;;;5014721;28;20042;-68
2023/04/19 01:21:03;;;;;;;0.50;0.50;;;22.20;46.70;;;;;;5015857;28;20123;-66
2023/04/19 01:23:30;;;;;;;0.95;0.60;;;22.20;46.60;;;;;;5015421;28;20046;-67
2023/04/19 01:26:00;;;;;;;0.40;0.40;;;22.20;46.60;;;;;;5015421;28;20141;-69
2023/04/19 01:28:27;;;;;;;0.50;0.50;;;22.20;46.60;;;;;;5015477;28;20049;-68
2023/04/19 01:30:54;;;;;;;0.40;0.40;;;22.20;46.60;;;;;;5015178;28;20144;-66
2023/04/19 01:33:22;;;;;;;0.80;0.73;;;22.20;46.50;;;;;;5015320;28;20054;-65
2023/04/19 01:35:49;;;;;;;0.57;0.40;;;22.30;46.50;;;;;;5015527;28;20049;-67
2023/04/19 01:38:17;;;;;;;0.65;0.60;;;22.20;46.50;;;;;;5015262;28;20103;-68
2023/04/19 01:40:44;;;;;;;0.73;0.73;;;22.20;46.50;;;;;;4996273;28;20070;-68
2023/04/19 01:43:13;;;;;;;0.60;0.60;;;22.20;47.00;;;;;;5011208;28;20078;-66
2023/04/19 01:45:40;;;;;;;0.50;0.50;;;22.20;46.40;;;;;;4996185;28;20526;-69
2023/04/19 01:48:08;;;;;;;0.50;0.50;;;22.30;46.50;;;;;;4995321;28;20053;-65
2023/04/19 01:50:35;;;;;;;0.50;0.50;;;22.20;46.40;;;;;;4996058;28;20412;-66
2023/04/19 01:53:02;;;;;;;0.50;0.50;;;22.20;46.40;;;;;;4996145;28;20121;-69
2023/04/19 01:55:29;;;;;;;0.63;0.60;;;22.30;46.50;;;;;;4995947;28;20046;-65
2023/04/19 01:57:56;;;;;;;0.40;0.40;;;22.20;46.40;;;;;;4995909;28;20049;-67
2023/04/19 02:00:24;;;;;;;0.40;0.40;;;22.20;46.40;;;;;;4995822;28;20135;-65
2023/04/19 02:02:51;;;;;;;0.40;0.40;;;22.20;46.40;;;;;;4995901;28;20141;-64
2023/04/19 02:05:18;;;;;;;0.50;0.50;;;22.20;46.40;;;;;;5013932;28;20512;-65
2023/04/19 02:07:45;;;;;;;0.50;0.50;;;22.20;46.40;;;;;;4995150;28;20050;-64
2023/04/19 02:10:13;;;;;;;0.60;0.60;;;22.20;46.50;;;;;;4994565;28;20104;-64
2023/04/19 02:12:41;;;;;;;0.60;0.60;;;22.10;46.40;;;;;;4995851;28;20086;-64
2023/04/19 02:15:09;;;;;;;0.85;0.50;;;22.10;46.40;;;;;;4995591;28;20050;-65
2023/04/19 02:17:37;;;;;;;0.45;0.45;;;22.20;46.40;;;;;;4995172;28;20042;-64
2023/04/19 02:20:06;;;;;;;0.63;0.50;;;22.10;46.40;;;;;;4995244;28;20054;-65
2023/04/19 02:22:34;;;;;;;0.50;0.50;;;22.20;46.40;;;;;;4995201;28;20084;-64
2023/04/19 02:25:01;;;;;;;0.43;0.43;;;22.10;46.30;;;;;;4995318;28;20077;-64
2023/04/19 02:27:28;;;;;;;0.93;0.93;;;22.20;46.40;;;;;;4994242;28;20046;-65
2023/04/19 02:29:55;;;;;;;0.45;0.45;;;22.20;46.40;;;;;;4995193;28;20465;-64
2023/04/19 02:32:22;;;;;;;0.35;0.35;;;22.20;46.40;;;;;;4995406;28;20129;-64
2023/04/19 02:34:49;;;;;;;0.55;0.55;;;22.10;46.30;;;;;;5007231;28;20401;-64
2023/04/19 02:37:17;;;;;;;0.30;0.30;;;22.20;46.40;;;;;;5009903;28;20129;-65
2023/04/19 02:39:44;;;;;;;0.70;0.70;;;22.20;46.40;;;;;;5011035;28;20136;-64
2023/04/19 02:42:12;;;;;;;0.55;0.55;;;22.10;46.30;;;;;;5005617;28;20434;-65
2023/04/19 02:44:39;;;;;;;0.40;0.40;;;22.10;46.30;;;;;;4994829;28;20437;-64
2023/04/19 02:47:06;;;;;;;0.50;0.50;;;22.20;46.40;;;;;;4993782;28;20125;-65
2023/04/19 02:49:35;;;;;;;0.60;0.60;;;22.10;46.30;;;;;;4994513;28;20052;-64
2023/04/19 02:52:03;;;;;;;0.60;0.60;;;22.10;46.30;;;;;;4993125;28;20073;-65
2023/04/19 02:54:32;;;;;;;0.60;0.60;;;22.10;46.90;;;;;;4994616;28;20085;-64
2023/04/19 02:56:59;;;;;;;0.63;0.50;;;22.10;46.30;;;;;;4994442;28;20468;-64
2023/04/19 02:59:26;;;;;;;0.38;0.38;;;22.10;46.30;;;;;;4994885;28;20054;-64
2023/04/19 03:01:54;;;;;;;0.55;0.55;;;22.10;46.30;;;;;;4994660;28;20157;-64
2023/04/19 03:04:21;;;;;;;0.30;0.30;;;22.10;46.30;;;;;;4994741;28;20449;-65
2023/04/19 03:06:48;;;;;;;0.50;0.50;;;22.10;46.30;;;;;;4994424;28;20078;-64
2023/04/19 03:09:15;;;;;;;0.30;0.30;;;22.20;46.40;;;;;;4993968;28;20082;-65
2023/04/19 03:11:42;;;;;;;0.47;0.47;;;22.10;46.30;;;;;;4994415;28;20113;-64
2023/04/19 03:14:10;;;;;;;0.70;0.70;;;22.10;46.30;;;;;;5011108;28;20049;-65
2023/04/19 03:16:37;;;;;;;0.40;0.40;;;22.10;46.30;;;;;;5013533;28;20058;-64
2023/04/19 03:19:05;;;;;;;0.40;0.40;;;22.10;46.30;;;;;;5013128;28;20566;-64
2023/04/19 03:21:32;;;;;;;0.82;0.80;;;22.10;46.30;;;;;;5013547;28;20453;-65
2023/04/19 03:24:00;;;;;;;0.30;0.30;;;22.10;46.30;;;;;;5013956;28;20046;-64
2023/04/19 03:26:27;;;;;;;0.38;0.38;;;22.10;46.30;;;;;;4991999;28;20086;-65
2023/04/19 03:28:54;;;;;;;0.50;0.50;;;22.10;46.30;;;;;;4993692;28;20085;-64
2023/04/19 03:31:21;;;;;;;0.40;0.40;;;22.10;46.30;;;;;;4994253;28;20064;-64
2023/04/19 03:33:49;;;;;;;0.38;0.32;;;22.10;46.30;;;;;;4994011;28;20507;-64
2023/04/19 03:36:16;;;;;;;0.52;0.52;;;22.10;46.20;;;;;;4993600;28;20050;-64
2023/04/19 03:38:44;;;;;;;0.30;0.30;;;22.10;46.20;;;;;;4993571;28;20050;-65
2023/04/19 03:41:25;;;;;;;0.40;0.40;;;22.10;46.20;;;;;;4994290;28;20423;-65
2023/04/19 03:43:52;;;;;;;0.40;0.40;;;22.20;46.20;;;;;;4999112;28;20473;-65
2023/04/19 03:46:20;;;;;;;0.57;0.52;;;22.10;46.10;;;;;;4994059;28;20137;-65
2023/04/19 03:48:47;;;;;;;0.50;0.50;;;22.10;46.10;;;;;;4995053;28;20046;-65
2023/04/19 03:51:15;;;;;;;0.38;0.38;;;22.10;46.10;;;;;;5004700;28;20054;-64
2023/04/19 03:53:42;;;;;;;0.45;0.40;;;22.10;46.10;;;;;;5004184;28;20125;-65
2023/04/19 03:56:10;;;;;;;0.70;0.70;;;22.20;46.10;;;;;;5008135;28;20462;-64
2023/04/19 03:58:37;;;;;;;0.40;0.40;;;22.20;46.20;;;;;;5000037;28;20557;-64
2023/04/19 04:01:07;;;;;;;0.60;0.60;;;22.10;46.10;;;;;;4997489;28;20092;-65
2023/04/19 04:03:34;;;;;;;0.40;0.40;;;22.10;46.10;;;;;;4998319;28;20132;-64
2023/04/19 04:06:02;;;;;;;0.40;0.40;;;22.10;46.10;;;;;;5008163;28;20057;-65
2023/04/19 04:08:29;;;;;;;0.50;0.50;;;22.10;46.10;;;;;;4992964;28;20082;-64
2023/04/19 04:10:56;;;;;;;0.60;0.60;;;22.10;46.10;;;;;;4993380;28;20084;-64
2023/04/19 04:13:23;;;;;;;0.50;0.50;;;22.10;46.10;;;;;;4992420;28;20092;-65
2023/04/19 04:15:50;;;;;;;0.43;0.43;;;22.10;46.10;;;;;;4993218;28;20050;-65
2023/04/19 04:18:18;;;;;;;0.50;0.50;;;22.10;46.10;;;;;;5005586;28;20046;-65
2023/04/19 04:20:45;;;;;;;0.73;0.70;;;22.10;46.10;;;;;;4993224;28;20081;-64
2023/04/19 04:23:13;;;;;;;0.50;0.50;;;22.10;46.00;;;;;;4993275;28;20054;-64
2023/04/19 04:25:41;;;;;;;0.85;0.75;;;22.10;46.00;;;;;;4993373;28;20134;-64
2023/04/19 04:28:09;;;;;;;0.40;0.40;;;22.20;46.10;;;;;;5005875;28;20050;-64
2023/04/19 04:30:36;;;;;;;0.40;0.40;;;22.10;46.00;;;;;;5010107;28;20058;-64
2023/04/19 04:33:03;;;;;;;0.50;0.50;;;22.10;45.90;;;;;;4993433;28;20479;-64
2023/04/19 04:35:31;;;;;;;0.70;0.70;;;22.20;46.00;;;;;;4994267;28;20108;-64
2023/04/19 04:37:58;;;;;;;1.23;1.00;;;22.10;45.80;;;;;;4995642;28;20050;-64
2023/04/19 04:40:26;;;;;;;1.10;1.00;;;22.10;45.70;;;;;;5001224;28;20094;-64
2023/04/19 04:42:53;;;;;;;1.15;1.10;;;22.10;45.60;;;;;;4995035;28;20104;-64
2023/04/19 04:45:21;;;;;;;2.72;1.40;;;22.10;45.50;;;;;;4996040;28;20134;-64
2023/04/19 04:47:48;;;;;;;1.08;1.00;;;22.10;45.50;;;;;;5008884;28;20134;-64
2023/04/19 04:50:15;;;;;;;1.02;0.90;;;22.10;45.50;;;;;;5003861;28;20050;-64
2023/04/19 04:52:43;;;;;;;3.13;1.58;;;22.10;45.50;;;;;;5000213;28;20079;-64
2023/04/19 04:55:10;;;;;;;1.17;1.17;;;22.10;45.50;;;;;;5012024;28;20528;-64
2023/04/19 04:57:37;;;;;;;1.20;1.20;;;22.10;45.40;;;;;;5005226;28;20050;-64
2023/04/19 05:00:05;;;;;;;1.42;1.20;;;22.20;45.40;;;;;;4996589;28;20505;-64
2023/04/19 05:02:32;;;;;;;1.52;1.42;;;22.20;45.30;;;;;;4997880;28;20050;-64
2023/04/19 05:05:00;;;;;;;1.00;1.00;;;22.10;45.20;;;;;;4997722;28;20572;-65
2023/04/19 05:07:27;;;;;;;1.27;1.17;;;22.10;45.10;;;;;;4996693;28;20057;-64
2023/04/19 05:09:54;;;;;;;1.75;1.63;;;22.20;45.00;;;;;;4990735;28;20109;-64
2023/04/19 05:12:21;;;;;;;1.70;1.60;;;22.20;44.90;;;;;;5009321;28;20100;-63
2023/04/19 05:14:48;;;;;;;1.15;1.15;;;22.20;44.80;;;;;;5001633;28;20117;-63
2023/04/19 05:17:16;;;;;;;3.28;2.08;;;22.30;44.80;;;;;;5010615;28;20081;-63
2023/04/19 05:19:43;;;;;;;1.80;1.65;;;22.30;44.70;;;;;;5008042;28;20524;-62
2023/04/19 05:22:10;;;;;;;1.77;1.67;;;22.30;44.60;;;;;;5006705;28;20135;-63
2023/04/19 05:24:37;;;;;;;2.83;1.42;;;22.30;44.40;;;;;;5004967;28;20050;-65
2023/04/19 05:27:08;;;;;;;1.65;1.55;;;22.40;44.40;;;;;;5005095;28;20081;-64
2023/04/19 05:29:36;;;;;;;2.03;1.88;;;22.40;44.30;;;;;;5003982;28;20501;-64
2023/04/19 05:32:03;;;;;;;2.35;2.17;;;22.50;44.30;;;;;;5004283;28;20052;-65
2023/04/19 05:34:30;;;;;;;6.90;3.35;;;22.60;44.40;;;;;;5004137;28;20152;-65
2023/04/19 05:36:57;;;;;;;4.35;3.95;;;22.60;43.10;;;;;;5004193;28;20120;-62
2023/04/19 05:39:25;;;;;;;6.28;4.28;;;22.60;42.20;;;;;;5006126;28;20108;-62
2023/04/19 05:41:52;;;;;;;3.92;3.00;;;22.50;42.50;;;;;;5005575;28;20077;-63
2023/04/19 05:44:20;;;;;;;3.63;3.22;;;22.50;43.10;;;;;;5000475;28;20465;-64
2023/04/19 05:46:47;;;;;;;4.63;2.65;;;22.60;43.40;;;;;;4991355;28;20076;-64
2023/04/19 05:49:14;;;;;;;4.90;2.25;;;22.60;43.60;;;;;;5004934;28;20149;-64
2023/04/19 05:51:41;;;;;;;2.53;2.35;;;22.70;43.60;;;;;;5000841;28;20137;-64
2023/04/19 05:54:11;;;;;;;3.97;2.15;;;22.70;44.10;;;;;;4998587;28;20153;-62
2023/04/19 05:56:38;;;;;;;2.97;2.08;;;22.80;43.50;;;;;;4997640;28;20068;-62
2023/04/19 05:59:07;;;;;;;6.82;2.00;;;22.80;43.40;;;;;;5001540;28;20077;-62
2023/04/19 06:01:34;;;;;;;3.00;2.15;;;22.80;43.40;;;;;;5000645;28;20112;-61
2023/04/19 06:04:01;;;;;;;2.83;2.58;;;22.90;43.40;;;;;;5001177;28;20057;-61
2023/04/19 06:06:29;;;;;;;2.72;2.50;;;23.00;43.30;;;;;;5000857;28;20137;-59
2023/04/19 06:08:56;;;;;;;5.07;2.72;;;23.10;43.20;;;;;;5000039;28;20083;-59
2023/04/19 06:11:23;;;;;;;2.63;2.42;;;23.20;43.30;;;;;;5003167;28;20050;-60
2023/04/19 06:14:05;;;;;;;2.55;2.25;;;23.20;43.40;;;;;;5002142;28;20457;-60
2023/04/19 06:16:32;;;;;;;4.45;2.67;;;23.30;43.70;;;;;;5003304;28;20454;-59
2023/04/19 06:18:59;;;;;;;2.88;2.67;;;23.40;43.80;;;;;;5001152;28;20046;-61
2023/04/19 06:21:30;;;;;;;3.22;2.83;;;23.40;43.80;;;;;;5002439;28;20140;-61
2023/04/19 06:23:58;;;;;;;5.05;2.63;;;23.50;43.70;;;;;;5003396;28;20145;-60
2023/04/19 06:26:25;;;;;;;5.47;2.55;;;23.50;43.60;;;;;;5002753;28;20054;-60
2023/04/19 06:28:52;;;;;;;7.82;2.60;;;23.60;43.60;;;;;;5003840;28;20043;-60
2023/04/19 06:31:20;;;;;;;2.67;2.30;;;23.70;43.50;;;;;;5016990;28;20050;-61
2023/04/19 06:33:47;;;;;;;3.28;2.38;;;23.70;43.40;;;;;;5003154;28;20414;-62
2023/04/19 06:36:16;;;;;;;2.92;2.60;;;23.70;43.40;;;;;;5003850;28;20137;-61
2023/04/19 06:38:45;;;;;;;2.42;2.22;;;23.80;43.30;;;;;;5003523;28;20050;-60
2023/04/19 06:41:12;;;;;;;4.43;2.75;;;23.80;43.30;;;;;;4993143;28;20147;-59
2023/04/19 06:43:41;;;;;;;3.58;2.72;;;23.90;43.10;;;;;;4997781;28;20057;-61
2023/04/19 06:46:08;;;;;;;2.95;2.20;;;23.90;42.90;;;;;;4998397;28;20042;-61
2023/04/19 06:48:36;;;;;;;5.15;2.53;;;23.90;42.80;;;;;;4997874;28;20058;-62
2023/04/19 06:51:04;;;;;;;8.98;2.90;;;24.00;42.70;;;;;;4999994;28;20096;-62
2023/04/19 06:53:31;;;;;;;2.67;2.47;;;24.00;42.60;;;;;;5002477;28;20078;-61
2023/04/19 06:56:00;;;;;;;4.30;2.65;;;24.00;42.40;;;;;;5001597;28;20128;-59
2023/04/19 06:58:28;;;;;;;4.20;2.80;;;24.10;42.40;;;;;;5000762;28;20492;-59
2023/04/19 07:00:57;;;;;;;5.55;2.83;;;24.10;42.30;;;;;;5016478;28;20049;-59
2023/04/19 07:03:24;;;;;;;3.10;2.80;;;24.20;42.40;;;;;;4997989;28;20041;-59
2023/04/19 07:05:54;;;;;;;5.10;2.70;;;24.20;42.30;;;;;;4979908;28;20474;-61
2023/04/19 07:08:23;;;;;;;8.95;2.85;;;24.20;42.10;;;;;;5000063;28;20054;-60
2023/04/19 07:11:04;;;;;;;3.45;2.78;;;24.30;41.90;;;;;;4995520;28;20050;-61
2023/04/19 07:13:32;;;;;;;4.78;3.47;;;24.30;41.70;;;;;;4984521;28;20081;-61
2023/04/19 07:16:02;;;;;;;4.63;2.80;;;24.30;41.70;;;;;;4999249;28;20141;-61
2023/04/19 07:18:30;;;;;;;7.40;2.88;;;24.30;41.60;;;;;;4999383;28;20494;-59
2023/04/19 07:20:57;;;;;;;3.20;2.90;;;24.40;41.70;;;;;;4997827;28;20056;-63
2023/04/19 07:23:24;;;;;;;4.22;2.92;;;24.40;41.50;;;;;;4995977;28;20049;-60
2023/04/19 07:25:51;;;;;;;4.40;3.55;;;24.40;41.90;;;;;;5001474;28;20060;-61
2023/04/19 07:28:19;;;;;;;4.97;3.80;;;24.40;41.20;;;;;;5001371;28;20113;-62
2023/04/19 07:30:46;;;;;;;6.25;4.22;;;24.50;41.50;;;;;;4998920;28;20550;-62
2023/04/19 07:33:14;;;;;;;11.40;4.82;;;24.50;41.70;;;;;;4997590;28;20042;-62
2023/04/19 07:35:41;;;;;;;8.10;5.15;;;24.50;41.80;;;;;;5000212;28;20049;-62
2023/04/19 07:38:09;;;;;;;13.00;5.10;;;24.60;41.80;;;;;;5000054;28;20049;-64
2023/04/19 07:40:36;;;;;;;7.85;4.75;;;24.70;41.80;;;;;;5001608;28;20560;-63
2023/04/19 07:43:04;;;;;;;8.07;3.75;;;24.70;41.80;;;;;;4999383;28;20081;-64
2023/04/19 07:45:32;;;;;;;7.85;4.65;;;24.70;41.70;;;;;;5000107;28;20086;-65
2023/04/19 07:47:59;;;;;;;6.28;4.15;;;24.80;41.60;;;;;;5001388;28;20050;-65
2023/04/19 07:50:27;;;;;;;8.27;4.13;;;24.90;41.60;;;;;;4999369;28;20130;-63
2023/04/19 07:52:55;;;;;;;6.88;3.80;;;24.90;41.50;;;;;;4999577;28;20383;-63
2023/04/19 07:55:23;;;;;;;4.72;3.50;;;24.90;41.50;;;;;;4997417;28;20107;-62
2023/04/19 07:57:51;;;;;;;5.90;3.47;;;25.00;41.30;;;;;;5000617;28;20042;-64
2023/04/19 08:00:20;;;;;;;4.22;3.45;;;25.00;41.20;;;;;;5001390;28;20668;-63
2023/04/19 08:02:48;;;;;;;3.57;3.00;;;25.10;41.00;;;;;;5000423;28;20089;-63
2023/04/19 08:05:16;;;;;;;3.78;3.40;;;25.10;40.90;;;;;;5000660;28;20130;-64
2023/04/19 08:07:44;;;;;;;6.57;4.20;;;25.10;40.90;;;;;;5000497;28;20065;-64
2023/04/19 08:10:11;;;;;;;5.50;3.58;;;25.10;40.90;;;;;;5001772;28;20050;-66
2023/04/19 08:12:40;;;;;;;7.20;3.97;;;25.20;40.90;;;;;;5001018;28;20476;-66
2023/04/19 08:15:27;;;;;;;4.65;3.35;;;25.20;40.90;;;;;;5000414;28;20065;-64
2023/04/19 08:18:15;;;;;;;4.47;3.47;;;25.20;40.80;;;;;;4998842;28;20149;-64
2023/04/19 08:20:42;;;;;;;5.20;3.97;;;25.30;40.60;;;;;;4997008;28;20485;-62
2023/04/19 08:23:10;;;;;;;4.80;3.63;;;25.30;40.50;;;;;;4998934;28;21258;-64
2023/04/19 08:25:51;;;;;;;5.65;3.75;;;25.30;40.50;;;;;;5002641;28;20050;-61
2023/04/19 08:28:18;;;;;;;4.25;3.25;;;25.30;40.50;;;;;;4999985;28;20081;-59
2023/04/19 08:30:45;;;;;;;8.07;3.67;;;25.40;40.70;;;;;;5000829;28;20123;-62
2023/04/19 08:33:12;;;;;;;6.28;4.03;;;25.40;40.60;;;;;;5000212;28;20054;-62
2023/04/19 08:35:40;;;;;;;6.22;3.60;;;25.40;40.50;;;;;;5002522;28;20486;-62
2023/04/19 08:38:08;;;;;;;5.40;3.60;;;25.50;40.70;;;;;;4999121;28;20081;-62
2023/04/19 08:40:40;;;;;;;5.28;3.60;;;25.50;40.70;;;;;;4995762;28;20054;-60
2023/04/19 08:43:08;;;;;;;8.90;5.05;;;25.60;40.40;;;;;;4998522;28;20057;-61
2023/04/19 08:45:36;;;;;;;5.15;4.00;;;25.60;38.00;;;;;;5001815;28;20050;-63
2023/04/19 08:48:05;;;;;;;4.68;4.18;;;25.50;38.40;;;;;;4999906;28;20132;-63
2023/04/19 08:50:33;;;;;;;5.30;4.18;;;25.40;38.80;;;;;;4998009;28;20057;-62
2023/04/19 08:53:15;;;;;;;7.40;4.60;;;25.40;39.10;;;;;;5004277;28;20133;-62
2023/04/19 08:55:57;;;;;;;6.20;4.00;;;25.40;39.50;;;;;;5005533;28;20128;-62
2023/04/19 08:58:45;;;;;;;4.68;3.78;;;25.40;39.60;;;;;;5002969;28;20051;-62
2023/04/19 09:01:15;;;;;;;4.65;3.92;;;25.40;39.70;;;;;;5003739;28;20054;-61
2023/04/19 09:03:59;;;;;;;5.85;3.63;;;25.40;39.90;;;;;;5006317;28;20050;-61
2023/04/19 09:06:46;;;;;;;8.18;3.75;;;25.40;39.90;;;;;;5002795;28;20060;-62
2023/04/19 09:09:17;;;;;;;5.20;3.45;;;25.40;40.00;;;;;;5002664;28;20061;-62
2023/04/19 09:11:50;;;;;;;5.53;3.90;;;25.40;40.00;;;;;;5002336;28;20401;-62
2023/04/19 09:14:19;;;;;;;4.70;3.67;;;25.50;40.00;;;;;;5001697;28;20410;-62
2023/04/19 09:16:47;;;;;;;6.15;4.03;;;25.50;40.00;;;;;;5002992;28;20057;-61
2023/04/19 09:19:15;;;;;;;4.38;3.63;;;25.50;40.00;;;;;;5003698;28;20469;-61
2023/04/19 09:21:52;;;;;;;6.97;4.22;;;25.50;40.00;;;;;;5004133;28;20140;-62
2023/04/19 09:24:37;;;;;;;3.95;3.15;;;25.50;39.90;;;;;;5004127;28;20077;-62
2023/04/19 09:27:28;;;;;;;5.25;4.15;;;25.50;40.00;;;;;;5004966;28;20046;-62
2023/04/19 09:29:58;;;;;;;4.82;3.85;;;25.50;39.90;;;;;;5004716;28;20129;-62
2023/04/19 09:32:27;;;;;;;5.50;3.78;;;25.50;39.90;;;;;;5004541;28;20100;-62
2023/04/19 09:34:57;;;;;;;4.43;4.03;;;25.50;39.90;;;;;;5002995;28;20041;-62
2023/04/19 09:37:26;;;;;;;6.18;4.13;;;25.50;39.90;;;;;;5000786;28;20096;-60
2023/04/19 09:39:56;;;;;;;8.77;4.47;;;25.60;39.90;;;;;;5004289;28;20073;-61
2023/04/19 09:42:23;;;;;;;5.72;3.95;;;25.60;39.90;;;;;;5004806;28;20057;-61
2023/04/19 09:45:11;;;;;;;5.53;4.40;;;25.60;39.90;;;;;;5004604;28;20046;-62
2023/04/19 09:48:08;;;;;;;7.57;4.70;;;25.60;40.10;;;;;;5001878;28;20050;-61
2023/04/19 09:50:57;;;;;;;8.50;4.47;;;25.60;40.40;;;;;;5000809;28;20049;-60
2023/04/19 09:53:35;;;;;;;5.82;3.88;;;25.60;39.70;;;;;;5004058;28;20128;-60
2023/04/19 09:56:04;;;;;;;5.22;4.13;;;25.70;39.70;;;;;;5005249;28;20646;-60
2023/04/19 09:58:32;;;;;;;6.15;4.35;;;25.70;39.60;;;;;;5003064;28;20054;-61
2023/04/19 10:01:22;;;;;;;4.72;4.18;;;25.70;39.70;;;;;;5003834;28;20593;-61
2023/04/19 10:03:50;;;;;;;;;;;25.70;39.70;;;;;;5007343;28;20058;-61
2023/04/19 10:06:19;;;;;;;5.10;4.00;;;25.70;39.60;;;;;;5003211;28;19944;-60
2023/04/19 10:08:52;;;;;;;4.55;3.97;;;25.70;39.70;;;;;;5004596;28;20128;-63
2023/04/19 10:11:21;;;;;;;5.03;3.88;;;25.70;39.60;;;;;;5003451;28;20509;-62
2023/04/19 10:13:54;;;;;;;8.00;4.60;;;25.70;39.60;;;;;;4999561;28;20572;-62
2023/04/19 10:16:21;;;;;;;4.90;4.03;;;25.70;39.50;;;;;;5004309;28;20096;-62
2023/04/19 10:18:51;;;;;;;5.70;4.05;;;25.70;39.50;;;;;;5002966;28;20041;-63
2023/04/19 10:21:19;;;;;;;4.82;4.32;;;25.70;39.40;;;;;;5003284;28;20732;-63
2023/04/19 10:23:47;;;;;;;5.00;4.50;;;25.70;39.30;;;;;;5001951;28;20061;-63
2023/04/19 10:26:14;;;;;;;6.60;4.25;;;25.70;39.20;;;;;;5002546;28;20131;-64
2023/04/19 10:28:42;;;;;;;4.80;3.80;;;25.70;39.20;;;;;;5003055;28;20138;-62
2023/04/19 10:31:12;;;;;;;10.07;4.75;;;25.70;39.20;;;;;;5001596;28;20149;-62
2023/04/19 10:33:40;;;;;;;5.82;4.63;;;25.70;39.00;;;;;;5002767;28;20069;-61
2023/04/19 10:36:09;;;;;;;4.95;4.45;;;25.80;38.80;;;;;;4999960;28;20087;-63
2023/04/19 10:38:48;;;;;;;4.28;3.88;;;25.80;39.00;;;;;;4999604;28;20140;-63
2023/04/19 10:41:17;;;;;;;8.77;4.55;;;25.80;38.60;;;;;;5004541;28;20057;-62
2023/04/19 10:44:06;;;;;;;7.20;5.53;;;25.80;38.40;;;;;;5001236;28;20442;-62
2023/04/19 10:46:38;;;;;;;7.75;5.85;;;25.80;38.00;;;;;;5004318;28;20299;-64
2023/04/19 10:49:08;;;;;;;8.13;5.20;;;25.60;36.90;;;;;;5002846;28;20049;-61
2023/04/19 10:51:46;;;;;;;6.75;5.82;;;25.50;37.50;;;;;;5003665;28;20920;-60
2023/04/19 10:54:30;;;;;;;9.55;5.88;;;25.40;37.90;;;;;;5000017;28;20050;-61
2023/04/19 10:57:06;;;;;;;8.98;5.38;;;25.50;38.20;;;;;;5004116;28;20154;-61
2023/04/19 10:59:35;;;;;;;8.10;5.97;;;25.50;38.20;;;;;;5005050;28;20045;-60
2023/04/19 11:02:04;;;;;;;6.20;5.53;;;25.60;38.20;;;;;;5002297;28;20061;-59
2023/04/19 11:04:57;;;;;;;9.60;5.45;;;25.70;38.00;;;;;;5003781;28;20079;-61
2023/04/19 11:07:24;;;;;;;7.35;4.55;;;25.70;37.70;;;;;;4999911;28;20133;-62
2023/04/19 11:09:51;;;;;;;7.32;4.82;;;25.70;37.70;;;;;;4996328;28;20049;-62
2023/04/19 11:12:20;;;;;;;5.32;4.40;;;25.80;37.80;;;;;;5002430;28;20053;-63
2023/04/19 11:14:56;;;;;;;4.90;4.50;;;25.80;38.10;;;;;;5014758;28;20054;-61
2023/04/19 11:17:30;;;;;;;5.25;4.53;;;25.80;38.10;;;;;;5002281;28;20053;-62
2023/04/19 11:20:01;;;;;;;7.35;4.85;;;25.90;38.20;;;;;;5002404;28;20997;-61
2023/04/19 11:22:37;;;;;;;5.47;4.65;;;25.90;38.20;;;;;;5001322;28;20727;-61
2023/04/19 11:25:19;;;;;;;6.95;4.47;;;26.00;38.20;;;;;;4999973;28;20049;-62
2023/04/19 11:27:52;;;;;;;7.47;5.07;;;26.00;37.90;;;;;;5002640;28;20452;-61
2023/04/19 11:30:21;;;;;;;5.25;4.75;;;26.00;37.80;;;;;;5002117;28;20054;-62
2023/04/19 11:32:51;;;;;;;6.95;4.50;;;26.10;38.00;;;;;;5002347;28;20116;-63
2023/04/19 11:35:21;;;;;;;4.30;3.90;;;26.10;38.10;;;;;;5000297;28;20054;-63
2023/04/19 11:37:49;;;;;;;4.47;4.07;;;26.10;38.00;;;;;;5001004;28;20186;-64
2023/04/19 11:40:18;;;;;;;5.85;4.15;;;26.10;37.70;;;;;;5002035;28;20116;-64
2023/04/19 11:42:46;;;;;;;9.60;4.55;;;26.10;37.50;;;;;;5001055;28;20058;-64
2023/04/19 11:45:35;;;;;;;4.90;4.22;;;26.10;37.30;;;;;;4999865;28;20062;-63
2023/04/19 11:48:12;;;;;;;7.95;4.65;;;26.10;37.10;;;;;;4999197;28;20085;-62
2023/04/19 11:50:41;;;;;;;8.45;4.38;;;26.10;37.50;;;;;;4999553;28;21062;-64
2023/04/19 11:53:13;;;;;;;7.13;4.43;;;26.10;37.60;;;;;;4997446;28;20486;-62
2023/04/19 11:55:56;;;;;;;6.82;3.80;;;26.10;37.50;;;;;;4998946;28;20059;-62
2023/04/19 11:58:30;;;;;;;5.28;4.53;;;26.20;37.60;;;;;;5002366;28;20132;-62
2023/04/19 12:01:12;;;;;;;7.47;5.07;;;26.20;37.50;;;;;;5002298;28;20057;-63
2023/04/19 12:03:43;;;;;;;7.72;4.60;;;26.30;37.60;;;;;;5001196;28;20085;-63
2023/04/19 12:06:14;;;;;;;6.80;4.50;;;26.30;37.60;;;;;;5002151;28;20046;-62
2023/04/19 12:08:44;;;;;;;6.50;4.07;;;26.30;37.40;;;;;;5001844;28;20060;-62
2023/04/19 12:11:11;;;;;;;5.60;4.38;;;26.30;37.40;;;;;;5001701;28;20057;-60
2023/04/19 12:13:39;;;;;;;17.15;6.13;;;26.30;37.60;;;;;;5001049;28;20145;-63
2023/04/19 12:16:07;;;;;;;43.72;10.30;;;26.30;37.50;;;;;;5002993;28;20464;-61
2023/04/19 12:18:49;;;;;;;56.85;11.48;;;26.30;37.50;;;;;;5003934;28;20501;-62
2023/04/19 12:21:29;;;;;;;29.25;10.43;;;26.30;37.50;;;;;;4998904;28;20046;-61
2023/04/19 12:23:59;;;;;;;12.10;7.47;;;26.20;35.80;;;;;;4999274;28;20478;-64
2023/04/19 12:26:27;;;;;;;17.02;7.10;;;26.00;35.20;;;;;;5003984;28;20193;-63
2023/04/19 12:28:55;;;;;;;10.48;6.07;;;26.00;36.00;;;;;;5006825;28;20053;-67
2023/04/19 12:31:23;;;;;;;8.15;6.57;;;25.90;36.30;;;;;;5003822;28;20470;-61
2023/04/19 12:33:50;;;;;;;9.13;5.90;;;26.00;36.70;;;;;;5002508;28;20464;-63
2023/04/19 12:36:18;;;;;;;9.40;6.35;;;26.00;37.00;;;;;;5005255;28;20502;-61
2023/04/19 12:38:45;;;;;;;15.38;6.55;;;26.10;37.00;;;;;;4999120;28;20054;-63
2023/04/19 12:41:12;;;;;;;11.02;6.13;;;26.10;37.00;;;;;;5005473;28;20484;-63
2023/04/19 12:43:40;;;;;;;8.05;6.07;;;26.20;37.10;;;;;;5005193;28;20184;-63
2023/04/19 12:46:07;;;;;;;9.63;6.38;;;26.10;37.20;;;;;;5005090;28;20054;-63
2023/04/19 12:48:34;;;;;;;12.07;6.07;;;26.10;37.30;;;;;;5003446;28;20065;-62
2023/04/19 12:51:03;;;;;;;7.93;6.30;;;26.10;37.50;;;;;;5005983;28;20065;-64
2023/04/19 12:53:30;;;;;;;11.13;6.32;;;26.10;37.70;;;;;;5002612;28;20116;-64
2023/04/19 12:55:57;;;;;;;8.93;6.40;;;26.10;37.90;;;;;;5006113;28;20133;-63
2023/04/19 12:58:26;;;;;;;7.38;6.63;;;26.20;37.90;;;;;;5005017;28;20061;-61